Observation data for Andrews on 02/22/2019      Previous  Date  Next       Current Mesonet Observations  Soil Data  Daily Summary Page  Observations in Plain Language
KANS 220600Z 11010KT 05/M01 A2982 RMK A01 T00461012  RH  067%=      5-min Rain = 0
KANS 220605Z 11010KT 05/M01 A2982 RMK A01 T00451013  RH  067%=      5-min Rain = 0
KANS 220610Z 12011KT 05/M01 A2982 RMK A01 T00451013  RH  067%=      5-min Rain = 0
KANS 220615Z 11010KT 04/M01 A2982 RMK A01 T00441014  RH  067%=      5-min Rain = 0
KANS 220620Z 11011KT 04/M01 A2982 RMK A01 T00431014  RH  067%=      5-min Rain = 0
KANS 220625Z 11010KT 04/M01 A2982 RMK A01 T00421013  RH  068%=      5-min Rain = 0
KANS 220630Z 11010KT 04/M01 A2982 RMK A01 T00411012  RH  069%=      5-min Rain = 0
KANS 220635Z 11010KT 04/M01 A2982 RMK A01 T00411011  RH  070%=      5-min Rain = 0
KANS 220640Z 11010KT 04/M01 A2983 RMK A01 T00411010  RH  070%=      5-min Rain = 0
KANS 220645Z 10009KT 04/M01 A2983 RMK A01 T00401009  RH  071%=      5-min Rain = 0
KANS 220650Z 10009KT 04/M01 A2983 RMK A01 T00391008  RH  072%=      5-min Rain = 0
KANS 220655Z 10008KT 04/M01 A2983 RMK A01 T00381008  RH  073%=      5-min Rain = 0
KANS 220700Z 11007KT 04/M01 A2983 RMK A01 T00371007  RH  073%=      5-min Rain = 0
KANS 220705Z 11008KT 04/M01 A2983 RMK A01 T00371007  RH  074%=      5-min Rain = 0
KANS 220710Z 11007KT 04/M01 A2983 RMK A01 T00361006  RH  075%=      5-min Rain = 0
KANS 220715Z 11007KT 04/M01 A2983 RMK A01 T00351006  RH  076%=      5-min Rain = 0
KANS 220720Z 10007KT 03/M01 A2984 RMK A01 T00341006  RH  076%=      5-min Rain = 0
KANS 220725Z 11006KT 03/M01 A2984 RMK A01 T00331005  RH  077%=      5-min Rain = 0
KANS 220730Z 10006KT 03/M01 A2984 RMK A01 T00311006  RH  077%=      5-min Rain = 0
KANS 220735Z 10006KT 03/M01 A2984 RMK A01 T00301005  RH  078%=      5-min Rain = 0
KANS 220740Z 10005KT 03/M01 A2984 RMK A01 T00301005  RH  079%=      5-min Rain = 0
KANS 220745Z 10005KT 03/M01 A2984 RMK A01 T00291005  RH  079%=      5-min Rain = 0
KANS 220750Z 09004KT 03/M01 A2984 RMK A01 T00281005  RH  080%=      5-min Rain = 0
KANS 220755Z 09004KT 03/M00 A2984 RMK A01 T00281004  RH  080%=      5-min Rain = 0
KANS 220800Z 10002KT 03/M00 A2985 RMK A01 T00271004  RH  080%=      5-min Rain = 0
KANS 220805Z 10001KT 03/M01 A2985 RMK A01 T00271005  RH  081%=      5-min Rain = 0
KANS 220810Z 09002KT 03/M00 A2985 RMK A01 T00271004  RH  081%=      5-min Rain = 0
KANS 220815Z 06002KT 03/M01 A2985 RMK A01 T00261005  RH  081%=      5-min Rain = 0
KANS 220820Z 07004KT 02/M01 A2985 RMK A01 T00241006  RH  081%=      5-min Rain = 0
KANS 220825Z 07004KT 02/M01 A2985 RMK A01 T00201010  RH  082%=      5-min Rain = 0
KANS 220830Z 07005KT 02/M01 A2985 RMK A01 T00151014  RH  082%=      5-min Rain = 0
KANS 220835Z 09005KT 01/M01 A2985 RMK A01 T00131013  RH  084%=      5-min Rain = 0
KANS 220840Z 09005KT 02/M01 A2984 RMK A01 T00151010  RH  085%=      5-min Rain = 0
KANS 220845Z 10005KT 02/M01 A2984 RMK A01 T00171007  RH  085%=      5-min Rain = 0
KANS 220850Z 10006KT 02/M01 A2984 RMK A01 T00171006  RH  085%=      5-min Rain = 0
KANS 220855Z 09006KT 02/M01 A2983 RMK A01 T00181005  RH  086%=      5-min Rain = 0
KANS 220900Z 09005KT 02/M01 A2984 RMK A01 T00181005  RH  086%=      5-min Rain = 0
KANS 220905Z 09006KT 02/M00 A2983 RMK A01 T00181004  RH  086%=      5-min Rain = 0
KANS 220910Z 09005KT 02/M00 A2983 RMK A01 T00191003  RH  086%=      5-min Rain = 0
KANS 220915Z 09005KT 02/M00 A2983 RMK A01 T00191003  RH  087%=      5-min Rain = 0
KANS 220920Z 10007KT 02/M00 A2983 RMK A01 T00201001  RH  087%=      5-min Rain = 0
KANS 220925Z 10006KT 02/00 A2983 RMK A01 T00210000  RH  087%=      5-min Rain = 0
KANS 220930Z 10006KT 02/M00 A2983 RMK A01 T00201001  RH  087%=      5-min Rain = 0
KANS 220935Z 11007KT 02/M00 A2983 RMK A01 T00181003  RH  087%=      5-min Rain = 0
KANS 220940Z 11007KT 02/M00 A2982 RMK A01 T00171003  RH  088%=      5-min Rain = 0
KANS 220945Z 11007KT 02/M00 A2982 RMK A01 T00171001  RH  089%=      5-min Rain = 0
KANS 220950Z 11005KT 02/M00 A2982 RMK A01 T00171001  RH  089%=      5-min Rain = 0
KANS 220955Z 11004KT 02/M00 A2983 RMK A01 T00171001  RH  089%=      5-min Rain = 0
KANS 221000Z 09003KT 02/M00 A2983 RMK A01 T00151002  RH  089%=      5-min Rain = 0
KANS 221005Z 04003KT 02/M00 A2983 RMK A01 T00151002  RH  089%=      5-min Rain = 0
KANS 221010Z 35007KT 01/M01 A2984 RMK A01 T00111008  RH  089%=      5-min Rain = 0
KANS 221015Z 01006KT 00/M01 A2984 RMK A01 T00031014  RH  089%=      5-min Rain = 0
KANS 221020Z 01006KT 00/M02 A2984 RMK A01 T00011015  RH  090%=      5-min Rain = 0
KANS 221025Z 01007KT M00/M02 A2984 RMK A01 T10011016  RH  091%=      5-min Rain = 0
KANS 221030Z 01006KT M00/M02 A2984 RMK A01 T10041018  RH  091%=      5-min Rain = 0
KANS 221035Z 01005KT M01/M02 A2985 RMK A01 T10061019  RH  091%=      5-min Rain = 0
KANS 221040Z 36005KT M01/M02 A2985 RMK A01 T10081021  RH  092%=      5-min Rain = 0
KANS 221045Z 00005KT M01/M02 A2985 RMK A01 T10101023  RH  092%=      5-min Rain = 0
KANS 221050Z 02005KT M01/M02 A2985 RMK A01 T10111024  RH  092%=      5-min Rain = 0
KANS 221055Z 05005KT M01/M02 A2985 RMK A01 T10111023  RH  092%=      5-min Rain = 0
KANS 221100Z 03005KT M01/M02 A2985 RMK A01 T10091021  RH  093%=      5-min Rain = 0
KANS 221105Z 01005KT M01/M02 A2985 RMK A01 T10081020  RH  093%=      5-min Rain = 0
KANS 221110Z 01005KT M01/M03 A2985 RMK A01 T10121025  RH  092%=      5-min Rain = 0
KANS 221115Z 01005KT M02/M03 A2986 RMK A01 T10151027  RH  092%=      5-min Rain = 0
KANS 221120Z 00005KT M02/M03 A2986 RMK A01 T10161028  RH  093%=      5-min Rain = 0
KANS 221125Z 36005KT M02/M03 A2986 RMK A01 T10171028  RH  093%=      5-min Rain = 0
KANS 221130Z 01005KT M02/M03 A2986 RMK A01 T10161027  RH  093%=      5-min Rain = 0
KANS 221135Z 00005KT M02/M03 A2987 RMK A01 T10161028  RH  093%=      5-min Rain = 0
KANS 221140Z 01005KT M02/M03 A2987 RMK A01 T10171029  RH  093%=      5-min Rain = 0
KANS 221145Z 02005KT M02/M03 A2987 RMK A01 T10161027  RH  094%=      5-min Rain = 0
KANS 221150Z 01004KT M01/M02 A2987 RMK A01 T10141024  RH  094%=      5-min Rain = 0
KANS 221155Z 01004KT M02/M03 A2987 RMK A01 T10161027  RH  093%=      5-min Rain = 0
KANS 221200Z 02005KT M02/M03 A2987 RMK A01 T10161027  RH  093%=      5-min Rain = 0
KANS 221205Z 02005KT M01/M02 A2987 RMK A01 T10131023  RH  094%=      5-min Rain = 0
KANS 221210Z 02003KT M01/M02 A2987 RMK A01 T10101021  RH  094%=      5-min Rain = 0
KANS 221215Z 04004KT M01/M02 A2987 RMK A01 T10091019  RH  094%=      5-min Rain = 0
KANS 221220Z 03003KT M01/M02 A2987 RMK A01 T10081019  RH  094%=      5-min Rain = 0
KANS 221225Z 02004KT M01/M02 A2988 RMK A01 T10081018  RH  093%=      5-min Rain = 0
KANS 221230Z 02005KT M01/M02 A2988 RMK A01 T10061017  RH  094%=      5-min Rain = 0
KANS 221235Z 02004KT M01/M02 A2988 RMK A01 T10061017  RH  093%=      5-min Rain = 0
KANS 221240Z 03004KT M00/M02 A2988 RMK A01 T10041015  RH  094%=      5-min Rain = 0
KANS 221245Z 02005KT M00/M01 A2988 RMK A01 T10021012  RH  094%=      5-min Rain = 0
KANS 221250Z 02004KT 00/01 A2989 RMK A01 T00000-10  RH  094%=      5-min Rain = 0
KANS 221255Z 03003KT 00/M01 A2989 RMK A01 T00021009  RH  093%=      5-min Rain = 0
KANS 221300Z 03004KT 00/M01 A2989 RMK A01 T00031008  RH  093%=      5-min Rain = 0
KANS 221305Z 03004KT 01/M01 A2989 RMK A01 T00061005  RH  093%=      5-min Rain = 0
KANS 221310Z 04004KT 01/M01 A2989 RMK A01 T00061005  RH  093%=      5-min Rain = 0
KANS 221315Z 04003KT 01/M00 A2989 RMK A01 T00071004  RH  093%=      5-min Rain = 0
KANS 221320Z 05003KT 01/M00 A2989 RMK A01 T00091003  RH  093%=      5-min Rain = 0
KANS 221325Z 05004KT 01/M00 A2989 RMK A01 T00101002  RH  093%=      5-min Rain = 0
KANS 221330Z 06003KT 01/M00 A2989 RMK A01 T00101002  RH  093%=      5-min Rain = 0
KANS 221335Z 06005KT 01/M00 A2989 RMK A01 T00111001  RH  093%=      5-min Rain = 0
KANS 221340Z 06004KT 01/00 A2989 RMK A01 T001200-0  RH  093%=      5-min Rain = 0
KANS 221345Z 06005KT 01/00 A299 RMK A01 T00130001  RH  093%=      5-min Rain = 0
KANS 221350Z 06005KT 02/00 A299 RMK A01 T00150003  RH  093%=      5-min Rain = 0
KANS 221355Z 06004KT 02/01 A299 RMK A01 T00180005  RH  093%=      5-min Rain = 0
KANS 221400Z 03002KT 02/01 A2991 RMK A01 T00190006  RH  092%=      5-min Rain = 0
KANS 221405Z 04003KT 02/01 A2991 RMK A01 T00210008  RH  092%=      5-min Rain = 0
KANS 221410Z 07003KT 02/01 A2991 RMK A01 T00230010  RH  092%=      5-min Rain = 0
KANS 221415Z 07004KT 02/01 A2991 RMK A01 T00240011  RH  092%=      5-min Rain = 0
KANS 221420Z 07003KT 03/01 A2992 RMK A01 T00250011  RH  092%=      5-min Rain = 0
KANS 221425Z 07004KT 03/01 A2992 RMK A01 T00260012  RH  092%=      5-min Rain = 0
KANS 221430Z 07003KT 03/01 A2992 RMK A01 T00270014  RH  092%=      5-min Rain = 0
KANS 221435Z 07003KT 03/02 A2992 RMK A01 T00280015  RH  092%=      5-min Rain = 0
KANS 221440Z 07003KT 03/02 A2992 RMK A01 T00300017  RH  092%=      5-min Rain = 0
KANS 221445Z 07003KT 03/02 A2993 RMK A01 T00320019  RH  092%=      5-min Rain = 0
KANS 221450Z 08003KT 03/02 A2993 RMK A01 T00340020  RH  092%=      5-min Rain = 0
KANS 221455Z 08003KT 04/02 A2993 RMK A01 T00360022  RH  091%=      5-min Rain = 0
KANS 221500Z 09003KT 04/02 A2993 RMK A01 T00390024  RH  091%=      5-min Rain = 0
KANS 221505Z 11002KT 04/03 A2993 RMK A01 T00420026  RH  091%=      5-min Rain = 0
KANS 221510Z 12003KT 04/03 A2993 RMK A01 T00440028  RH  090%=      5-min Rain = 0
KANS 221515Z 12003KT 05/03 A2993 RMK A01 T00450029  RH  090%=      5-min Rain = 0
KANS 221520Z 12003KT 05/03 A2993 RMK A01 T00480031  RH  090%=      5-min Rain = 0
KANS 221525Z 11004KT 05/03 A2993 RMK A01 T00510034  RH  090%=      5-min Rain = 0
KANS 221530Z 12004KT 06/04 A2993 RMK A01 T00550038  RH  090%=      5-min Rain = 0
KANS 221535Z 12005KT 06/04 A2993 RMK A01 T00590042  RH  090%=      5-min Rain = 0
KANS 221540Z 12005KT 06/04 A2993 RMK A01 T00610042  RH  089%=      5-min Rain = 0
KANS 221545Z 12006KT 06/04 A2993 RMK A01 T00610043  RH  089%=      5-min Rain = 0
KANS 221550Z 13006KT 06/04 A2993 RMK A01 T00630044  RH  089%=      5-min Rain = 0
KANS 221555Z 13007KT 06/05 A2993 RMK A01 T00640045  RH  089%=      5-min Rain = 0
KANS 221600Z 14007KT 07/05 A2992 RMK A01 T00680048  RH  088%=      5-min Rain = 0
KANS 221605Z 15007KT 07/05 A2993 RMK A01 T00710049  RH  087%=      5-min Rain = 0
KANS 221610Z 14005KT 07/05 A2993 RMK A01 T00730050  RH  087%=      5-min Rain = 0
KANS 221615Z 14006KT 08/05 A2993 RMK A01 T00750050  RH  085%=      5-min Rain = 0
KANS 221620Z 13006KT 08/05 A2992 RMK A01 T00790051  RH  083%=      5-min Rain = 0
KANS 221625Z 13006KT 08/05 A2992 RMK A01 T00800049  RH  082%=      5-min Rain = 0
KANS 221630Z 15006G12KT 08/05 A2992 RMK A01 T00840052  RH  081%=      5-min Rain = 0
KANS 221635Z 14007KT 09/05 A2992 RMK A01 T00880049  RH  078%=      5-min Rain = 0
KANS 221640Z 13007KT 09/05 A2992 RMK A01 T00900051  RH  078%=      5-min Rain = 0
KANS 221645Z 11007KT 09/05 A2992 RMK A01 T00920048  RH  075%=      5-min Rain = 0
KANS 221650Z 12006KT 09/05 A2992 RMK A01 T00930049  RH  075%=      5-min Rain = 0
KANS 221655Z 13005KT 10/05 A2992 RMK A01 T00980051  RH  073%=      5-min Rain = 0
KANS 221700Z 15006KT 10/05 A2992 RMK A01 T01020049  RH  071%=      5-min Rain = 0
KANS 221705Z 12005KT 10/05 A2992 RMK A01 T01040050  RH  070%=      5-min Rain = 0
KANS 221710Z 13004KT 11/05 A2992 RMK A01 T01070051  RH  069%=      5-min Rain = 0
KANS 221715Z 12005KT 11/05 A2992 RMK A01 T01110052  RH  068%=      5-min Rain = 0
KANS 221720Z 13005G10KT 11/05 A2992 RMK A01 T01120052  RH  067%=      5-min Rain = 0
KANS 221725Z 11004KT 12/05 A2991 RMK A01 T01170053  RH  066%=      5-min Rain = 0
KANS 221730Z 11005G10KT 12/05 A2991 RMK A01 T01180052  RH  065%=      5-min Rain = 0
KANS 221735Z 11004KT 12/05 A2991 RMK A01 T01200049  RH  063%=      5-min Rain = 0
KANS 221740Z 10004KT 12/05 A299 RMK A01 T01240052  RH  062%=      5-min Rain = 0
KANS 221745Z 11004G9KT 12/05 A299 RMK A01 T01240049  RH  061%=      5-min Rain = 0
KANS 221750Z 12004KT 13/05 A299 RMK A01 T01260047  RH  059%=      5-min Rain = 0
KANS 221755Z 10004KT 13/05 A2989 RMK A01 T01290049  RH  059%=      5-min Rain = 0
KANS 221800Z 12004G9KT 14/05 A2989 RMK A01 T01360049  RH  057%=      5-min Rain = 0
KANS 221805Z 12006KT 14/05 A2989 RMK A01 T01400046  RH  054%=      5-min Rain = 0
KANS 221810Z 13004KT 14/05 A2989 RMK A01 T01430048  RH  053%=      5-min Rain = 0
KANS 221815Z 12006KT 15/05 A2988 RMK A01 T01460046  RH  052%=      5-min Rain = 0
KANS 221820Z 10003KT 15/05 A2988 RMK A01 T01490047  RH  051%=      5-min Rain = 0
KANS 221825Z 11005KT 15/05 A2988 RMK A01 T01510045  RH  050%=      5-min Rain = 0
KANS 221830Z 10004KT 15/04 A2987 RMK A01 T01510037  RH  047%=      5-min Rain = 0
KANS 221835Z 14004KT 16/04 A2987 RMK A01 T01560037  RH  045%=      5-min Rain = 0
KANS 221840Z 15005KT 16/04 A2987 RMK A01 T01600039  RH  045%=      5-min Rain = 0
KANS 221845Z 12006KT 16/03 A2987 RMK A01 T01610029  RH  042%=      5-min Rain = 0
KANS 221850Z 10006KT 16/03 A2986 RMK A01 T01630025  RH  040%=      5-min Rain = 0
KANS 221855Z 10005KT 16/03 A2986 RMK A01 T01640031  RH  042%=      5-min Rain = 0
KANS 221900Z 13006KT 17/03 A2985 RMK A01 T01680027  RH  039%=      5-min Rain = 0
KANS 221905Z 13006KT 17/02 A2985 RMK A01 T01700024  RH  038%=      5-min Rain = 0
KANS 221910Z 11008KT 18/02 A2985 RMK A01 T01750021  RH  036%=      5-min Rain = 0
KANS 221915Z 12008G14KT 18/01 A2984 RMK A01 T01770011  RH  033%=      5-min Rain = 0
KANS 221920Z 10006G11KT 18/01 A2984 RMK A01 T01760011  RH  033%=      5-min Rain = 0
KANS 221925Z 14007G12KT 18/01 A2983 RMK A01 T01830009  RH  031%=      5-min Rain = 0
KANS 221930Z 12006KT 18/01 A2983 RMK A01 T01810005  RH  031%=      5-min Rain = 0
KANS 221935Z 14004KT 18/01 A2983 RMK A01 T01810012  RH  032%=      5-min Rain = 0
KANS 221940Z 13008KT 18/M00 A2983 RMK A01 T01831001  RH  029%=      5-min Rain = 0
KANS 221945Z 13007G12KT 19/00 A2982 RMK A01 T01850004  RH  030%=      5-min Rain = 0
KANS 221950Z 12007KT 19/00 A2982 RMK A01 T01870000  RH  029%=      5-min Rain = 0
KANS 221955Z 13006G11KT 19/M01 A2981 RMK A01 T01911011  RH  026%=      5-min Rain = 0
KANS 222000Z 15005G10KT 19/M01 A2981 RMK A01 T01901007  RH  027%=      5-min Rain = 0
KANS 222005Z 14008KT 19/M01 A298 RMK A01 T01921014  RH  025%=      5-min Rain = 0
KANS 222010Z 15007G12KT 19/M03 A298 RMK A01 T01921027  RH  023%=      5-min Rain = 0
KANS 222015Z 13007KT 19/M03 A298 RMK A01 T01931025  RH  023%=      5-min Rain = 0
KANS 222020Z 14008G15KT 20/M02 A2979 RMK A01 T01951020  RH  023%=      5-min Rain = 0
KANS 222025Z 17008G14KT 20/M03 A2979 RMK A01 T01961032  RH  021%=      5-min Rain = 0
KANS 222030Z 20006G11KT 20/M03 A2979 RMK A01 T01961028  RH  022%=      5-min Rain = 0
KANS 222035Z 15008G15KT 20/M03 A2979 RMK A01 T01981034  RH  021%=      5-min Rain = 0
KANS 222040Z 15007KT 20/M04 A2978 RMK A01 T02001036  RH  020%=      5-min Rain = 0
KANS 222045Z 15010KT 20/M04 A2978 RMK A01 T02001035  RH  020%=      5-min Rain = 0
KANS 222050Z 13007G13KT 20/M03 A2978 RMK A01 T01981033  RH  021%=      5-min Rain = 0
KANS 222055Z 13008G13KT 20/M03 A2978 RMK A01 T02011030  RH  021%=      5-min Rain = 0
KANS 222100Z 13006G11KT 20/M03 A2978 RMK A01 T01981031  RH  021%=      5-min Rain = 0
KANS 222105Z 16005KT 20/M03 A2977 RMK A01 T02041030  RH  021%=      5-min Rain = 0
KANS 222110Z 17012KT 21/M06 A2977 RMK A01 T02091061  RH  016%=      5-min Rain = 0
KANS 222115Z 16009G14KT 21/M08 A2976 RMK A01 T02121080  RH  014%=      5-min Rain = 0
KANS 222120Z 18012G19KT 21/M08 A2976 RMK A01 T02131080  RH  013%=      5-min Rain = 0
KANS 222125Z 19011G18KT 21/M08 A2976 RMK A01 T02121084  RH  013%=      5-min Rain = 0
KANS 222130Z 18009G14KT 21/M09 A2976 RMK A01 T02121086  RH  013%=      5-min Rain = 0
KANS 222135Z 18012KT 21/M09 A2976 RMK A01 T02131093  RH  012%=      5-min Rain = 0
KANS 222140Z 18009G14KT 21/M09 A2975 RMK A01 T02101091  RH  013%=      5-min Rain = 0
KANS 222145Z 18009G14KT 21/M09 A2975 RMK A01 T02121089  RH  013%=      5-min Rain = 0
KANS 222150Z 17008G13KT 21/M09 A2975 RMK A01 T02141087  RH  013%=      5-min Rain = 0
KANS 222155Z 18012G18KT 22/M09 A2975 RMK A01 T02161093  RH  012%=      5-min Rain = 0
KANS 222200Z 19011KT 22/M09 A2975 RMK A01 T02151092  RH  012%=      5-min Rain = 0
KANS 222205Z 17008KT 22/M09 A2975 RMK A01 T02161091  RH  012%=      5-min Rain = 0
KANS 222210Z 16011G16KT 22/M09 A2975 RMK A01 T02161092  RH  012%=      5-min Rain = 0
KANS 222215Z 18012G19KT 22/M09 A2974 RMK A01 T02161092  RH  012%=      5-min Rain = 0
KANS 222220Z 18012G17KT 22/M09 A2974 RMK A01 T02151089  RH  012%=      5-min Rain = 0
KANS 222225Z 16011G17KT 21/M09 A2974 RMK A01 T02141088  RH  013%=      5-min Rain = 0
KANS 222230Z 16012G19KT 22/M09 A2974 RMK A01 T02151085  RH  013%=      5-min Rain = 0
KANS 222235Z 17012KT 21/M08 A2973 RMK A01 T02131082  RH  013%=      5-min Rain = 0
KANS 222240Z 15010G15KT 21/M08 A2973 RMK A01 T02131081  RH  013%=      5-min Rain = 0
KANS 222245Z 15010KT 21/M08 A2972 RMK A01 T02141077  RH  014%=      5-min Rain = 0
KANS 222250Z 16008G14KT 22/M08 A2972 RMK A01 T02151076  RH  014%=      5-min Rain = 0
KANS 222255Z 16011G16KT 21/M07 A2972 RMK A01 T02131069  RH  015%=      5-min Rain = 0
KANS 222300Z 15009G16KT 21/M06 A2972 RMK A01 T02111062  RH  016%=      5-min Rain = 0
KANS 222305Z 13010G15KT 21/M06 A2972 RMK A01 T02091057  RH  016%=      5-min Rain = 0
KANS 222310Z 13009G14KT 21/M05 A2972 RMK A01 T02091050  RH  017%=      5-min Rain = 0
KANS 222315Z 15012KT 21/M05 A2972 RMK A01 T02101050  RH  017%=      5-min Rain = 0
KANS 222320Z 14010KT 21/M05 A2972 RMK A01 T02091046  RH  018%=      5-min Rain = 0
KANS 222325Z 13011KT 21/M04 A2972 RMK A01 T02091043  RH  018%=      5-min Rain = 0
KANS 222330Z 13012KT 21/M04 A2972 RMK A01 T02071041  RH  019%=      5-min Rain = 0
KANS 222335Z 13010KT 21/M04 A2971 RMK A01 T02051037  RH  019%=      5-min Rain = 0
KANS 222340Z 14010G15KT 21/M03 A2971 RMK A01 T02051034  RH  020%=      5-min Rain = 0
KANS 222345Z 13008KT 21/M03 A2971 RMK A01 T02051031  RH  020%=      5-min Rain = 0
KANS 222350Z 14010KT 20/M02 A2971 RMK A01 T02041024  RH  022%=      5-min Rain = 0
KANS 222355Z 13010KT 20/M02 A2971 RMK A01 T02021021  RH  022%=      5-min Rain = 0
KANS 230000Z 12011KT 20/M02 A297 RMK A01 T01991018  RH  023%=      5-min Rain = 0
KANS 230005Z 12010KT 20/M02 A297 RMK A01 T01971016  RH  024%=      5-min Rain = 0
KANS 230010Z 11009KT 20/M02 A297 RMK A01 T01951016  RH  024%=      5-min Rain = 0
KANS 230015Z 12008KT 19/M02 A297 RMK A01 T01931016  RH  024%=      5-min Rain = 0
KANS 230020Z 11008KT 19/M02 A297 RMK A01 T01901016  RH  025%=      5-min Rain = 0
KANS 230025Z 11007KT 19/M02 A2969 RMK A01 T01871016  RH  026%=      5-min Rain = 0
KANS 230030Z 10008KT 18/M02 A2969 RMK A01 T01821015  RH  027%=      5-min Rain = 0
KANS 230035Z 10009KT 18/M02 A2968 RMK A01 T01781015  RH  027%=      5-min Rain = 0
KANS 230040Z 10008KT 18/M02 A2968 RMK A01 T01761015  RH  028%=      5-min Rain = 0
KANS 230045Z 09008KT 17/M02 A2968 RMK A01 T01741015  RH  028%=      5-min Rain = 0
KANS 230050Z 09009KT 17/M02 A2968 RMK A01 T01731016  RH  028%=      5-min Rain = 0
KANS 230055Z 09010KT 17/M02 A2968 RMK A01 T01711017  RH  028%=      5-min Rain = 0
KANS 230100Z 09010KT 17/M02 A2968 RMK A01 T01701018  RH  028%=      5-min Rain = 0
KANS 230105Z 10010KT 17/M02 A2968 RMK A01 T01681018  RH  028%=      5-min Rain = 0
KANS 230110Z 10009KT 17/M02 A2968 RMK A01 T01661018  RH  029%=      5-min Rain = 0
KANS 230115Z 10009KT 16/M02 A2968 RMK A01 T01641020  RH  029%=      5-min Rain = 0
KANS 230120Z 11010KT 16/M02 A2968 RMK A01 T01611023  RH  029%=      5-min Rain = 0
KANS 230125Z 12009KT 16/M02 A2968 RMK A01 T01581024  RH  029%=      5-min Rain = 0
KANS 230130Z 11008KT 16/M03 A2968 RMK A01 T01561025  RH  029%=      5-min Rain = 0
KANS 230135Z 11009KT 16/M02 A2968 RMK A01 T01561021  RH  030%=      5-min Rain = 0
KANS 230140Z 09010KT 16/M01 A2968 RMK A01 T01581009  RH  032%=      5-min Rain = 0
KANS 230145Z 08014G22KT 15/04 A2968 RMK A01 T01460037  RH  050%=      5-min Rain = 0
KANS 230150Z 08015G21KT 13/06 A2968 RMK A01 T01320064  RH  064%=      5-min Rain = 0
KANS 230155Z 08015G21KT 13/07 A2968 RMK A01 T01270066  RH  067%=      5-min Rain = 0
KANS 230200Z 08015G21KT 12/07 A2968 RMK A01 T01220066  RH  069%=      5-min Rain = 0
KANS 230205Z 08013G18KT 12/07 A2968 RMK A01 T01180065  RH  071%=      5-min Rain = 0
KANS 230210Z 07013G18KT 11/06 A2967 RMK A01 T01120064  RH  073%=      5-min Rain = 0
KANS 230215Z 08015G22KT 11/06 A2967 RMK A01 T01090064  RH  075%=      5-min Rain = 0
KANS 230220Z 08015G20KT 11/06 A2967 RMK A01 T01080063  RH  075%=      5-min Rain = 0
KANS 230225Z 08014G22KT 11/06 A2967 RMK A01 T01080063  RH  075%=      5-min Rain = 0
KANS 230230Z 08013G19KT 11/06 A2968 RMK A01 T01090063  RH  075%=      5-min Rain = 0
KANS 230235Z 08013KT 11/06 A2968 RMK A01 T01080064  RH  075%=      5-min Rain = 0
KANS 230240Z 08013G18KT 11/06 A2967 RMK A01 T01070064  RH  076%=      5-min Rain = 0
KANS 230245Z 09013G18KT 11/07 A2967 RMK A01 T01070065  RH  076%=      5-min Rain = 0
KANS 230250Z 09014G21KT 11/07 A2968 RMK A01 T01080065  RH  076%=      5-min Rain = 0
KANS 230255Z 09013KT 11/07 A2967 RMK A01 T01080065  RH  076%=      5-min Rain = 0
KANS 230300Z 09011KT 11/07 A2967 RMK A01 T01080065  RH  076%=      5-min Rain = 0
KANS 230305Z 09012KT 11/07 A2967 RMK A01 T01080065  RH  076%=      5-min Rain = 0
KANS 230310Z 09014G19KT 11/07 A2967 RMK A01 T01070066  RH  077%=      5-min Rain = 0
KANS 230315Z 09011G16KT 11/07 A2967 RMK A01 T01070065  RH  077%=      5-min Rain = 0
KANS 230320Z 09012G18KT 11/07 A2967 RMK A01 T01060065  RH  077%=      5-min Rain = 0
KANS 230325Z 10012G19KT 11/07 A2967 RMK A01 T01060065  RH  077%=      5-min Rain = 0
KANS 230330Z 10013G18KT 11/07 A2967 RMK A01 T01060065  RH  077%=      5-min Rain = 0
KANS 230335Z 10011G16KT 11/07 A2968 RMK A01 T01050065  RH  077%=      5-min Rain = 0
KANS 230340Z 10011G16KT 10/07 A2968 RMK A01 T01040066  RH  078%=      5-min Rain = 0
KANS 230345Z 11009KT 10/07 A2968 RMK A01 T01040066  RH  078%=      5-min Rain = 0
KANS 230350Z 11008G14KT 10/07 A2968 RMK A01 T01040065  RH  078%=      5-min Rain = 0
KANS 230355Z 10008KT 10/07 A2968 RMK A01 T01040065  RH  078%=      5-min Rain = 0
KANS 230400Z 10007KT 10/07 A2968 RMK A01 T01040065  RH  078%=      5-min Rain = 0
KANS 230405Z 10007KT 10/06 A2968 RMK A01 T01030064  RH  078%=      5-min Rain = 0
KANS 230410Z 11006KT 10/06 A2968 RMK A01 T01020063  RH  078%=      5-min Rain = 0
KANS 230415Z 11005KT 10/06 A2968 RMK A01 T01030062  RH  077%=      5-min Rain = 0
KANS 230420Z 12007KT 11/06 A2968 RMK A01 T01060060  RH  074%=      5-min Rain = 0
KANS 230425Z 12008G13KT 11/06 A2968 RMK A01 T01120055  RH  069%=      5-min Rain = 0
KANS 230430Z 12009KT 12/05 A2969 RMK A01 T01160053  RH  066%=      5-min Rain = 0
KANS 230435Z 11010KT 12/05 A2968 RMK A01 T01150052  RH  066%=      5-min Rain = 0
KANS 230440Z 12010KT 12/05 A2969 RMK A01 T01150051  RH  065%=      5-min Rain = 0
KANS 230445Z 12010KT 12/05 A2969 RMK A01 T01170049  RH  064%=      5-min Rain = 0
KANS 230450Z 12009KT 12/05 A2969 RMK A01 T01180047  RH  062%=      5-min Rain = 0
KANS 230455Z 12009KT 12/05 A297 RMK A01 T01190046  RH  062%=      5-min Rain = 0
KANS 230500Z 13009KT 12/04 A297 RMK A01 T01200044  RH  061%=      5-min Rain = 0
KANS 230505Z 15006KT 12/04 A2972 RMK A01 T01200043  RH  060%=      5-min Rain = 0
KANS 230510Z 19004KT 12/04 A2974 RMK A01 T01210042  RH  059%=      5-min Rain = 0
KANS 230515Z 20002KT 12/04 A2974 RMK A01 T01210041  RH  059%=      5-min Rain = 0
KANS 230520Z 28003KT 12/04 A2974 RMK A01 T01200041  RH  059%=      5-min Rain = 0
KANS 230525Z 29001KT 12/04 A2974 RMK A01 T01180042  RH  061%=      5-min Rain = 0
KANS 230530Z 28001KT 12/04 A2974 RMK A01 T01180043  RH  061%=      5-min Rain = 0
KANS 230535Z 33002KT 12/05 A2973 RMK A01 T01170050  RH  064%=      5-min Rain = 0
KANS 230540Z 20002KT 11/05 A2973 RMK A01 T01140052  RH  067%=      5-min Rain = 0
KANS 230545Z 21010G20KT 12/05 A2974 RMK A01 T01220054  RH  064%=      5-min Rain = 0
KANS 230550Z 21017G31KT 14/05 A2973 RMK A01 T01350053  RH  059%=      5-min Rain = 0
KANS 230555Z 22022G31KT 14/00 A2972 RMK A01 T01350003  RH  041%=      5-min Rain = 0

Page generated in 0.0323 seconds.